Time;durP1;ratioP1;P1;durP2;ratioP2;P2;SDS_P1;SDS_P2;PMS_P1;PMS_P2;Temp;Humidity;BMP_temperature;BMP_pressure;BME280_temperature;BME280_humidity;BME280_pressure;Samples;Min_cycle;Max_cycle;Signal;HPM_P1;HPM_P2
2023/10/17 00:04:53;;;;;;;;;;;;;;;3.00;78.41;100335.08;218365;1259;140225;-70
2023/10/17 00:09:59;;;;;;;18.20;12.00;;;;;;;2.91;78.31;100331.88;217983;1262;126117;-70
2023/10/17 00:15:13;;;;;;;24.80;13.00;;;;;;;2.84;78.56;100331.30;217669;1260;140039;-66
2023/10/17 00:20:24;;;;;;;22.40;13.20;;;;;;;2.75;78.37;100333.65;218542;1257;140155;-68
2023/10/17 00:25:32;;;;;;;15.50;11.40;;;;;;;2.65;78.46;100334.08;217342;1260;140243;-67
2023/10/17 00:30:40;;;;;;;19.10;12.20;;;;;;;2.56;78.52;100331.02;218313;1259;140453;-66
2023/10/17 00:35:49;;;;;;;21.30;11.50;;;;;;;2.47;78.44;100339.89;217536;1262;140195;-65
2023/10/17 00:40:56;;;;;;;20.90;11.20;;;;;;;2.35;78.41;100334.89;217438;1260;140209;-65
2023/10/17 00:46:01;;;;;;;19.30;11.80;;;;;;;2.24;78.54;100333.16;217563;1261;139935;-66
2023/10/17 00:51:08;;;;;;;20.70;11.50;;;;;;;2.12;78.25;100331.83;218784;1258;140348;-65
2023/10/17 00:56:14;;;;;;;13.30;10.10;;;;;;;1.97;77.95;100334.46;219085;1260;140319;-65
2023/10/17 01:01:26;;;;;;;16.60;11.20;;;;;;;1.81;78.07;100335.15;217640;1257;140201;-65
2023/10/17 01:11:40;;;;;;;17.70;10.10;;;;;;;1.65;78.70;100332.17;220189;1258;140277;-69
2023/10/17 01:16:46;;;;;;;17.80;10.20;;;;;;;1.56;78.20;100332.91;219797;1258;140256;-69
2023/10/17 01:21:52;;;;;;;15.90;9.80;;;;;;;1.46;78.30;100333.34;219671;1260;140575;-68
2023/10/17 01:26:57;;;;;;;16.50;11.60;;;;;;;1.36;78.29;100330.65;220147;1257;140239;-69
2023/10/17 01:32:02;;;;;;;22.20;11.00;;;;;;;1.28;78.29;100335.71;219083;1261;141915;-68
2023/10/17 01:37:10;;;;;;;14.80;12.00;;;;;;;1.17;78.18;100337.37;218443;1258;140147;-67
2023/10/17 01:42:16;;;;;;;18.20;11.70;;;;;;;1.09;78.20;100338.31;218658;1261;140498;-68
2023/10/17 01:47:25;;;;;;;14.20;9.10;;;;;;;1.02;78.61;100338.95;219052;1258;141936;-69
2023/10/17 01:52:32;;;;;;;13.30;8.60;;;;;;;0.92;78.80;100342.45;217848;1262;140711;-66
2023/10/17 01:57:48;;;;;;;14.00;10.10;;;;;;;0.86;79.25;100344.70;217628;1258;140549;-66
2023/10/17 02:02:54;;;;;;;22.70;11.50;;;;;;;0.83;79.50;100346.48;218848;1259;140515;-66
2023/10/17 02:08:00;;;;;;;16.50;11.50;;;;;;;0.85;79.65;100342.69;217503;1258;139983;-65
2023/10/17 02:13:05;;;;;;;19.60;12.00;;;;;;;0.84;79.55;100342.95;217471;1257;140102;-66
2023/10/17 02:18:15;;;;;;;16.90;11.20;;;;;;;0.81;79.65;100347.27;217486;1261;611537;-65
2023/10/17 02:23:25;;;;;;;16.20;9.40;;;;;;;0.73;79.25;100352.95;217862;1262;140928;-65
2023/10/17 02:28:44;;;;;;;17.80;10.70;;;;;;;0.67;79.67;100348.68;218222;1263;140543;-66
2023/10/17 02:33:49;;;;;;;16.50;10.50;;;;;;;0.63;79.54;100359.30;218010;1261;140423;-66
2023/10/17 02:38:56;;;;;;;13.80;9.60;;;;;;;0.55;79.58;100363.39;217497;1261;140145;-67
2023/10/17 02:44:04;;;;;;;15.80;10.50;;;;;;;0.48;79.53;100366.36;217485;1257;140249;-67
2023/10/17 02:49:13;;;;;;;17.80;9.70;;;;;;;0.44;79.77;100367.15;218086;1261;140178;-66
2023/10/17 02:54:20;;;;;;;14.60;9.20;;;;;;;0.35;79.30;100372.42;219494;1258;142405;-67
2023/10/17 02:59:24;;;;;;;19.50;9.50;;;;;;;0.26;79.55;100374.17;220042;1257;141738;-67
2023/10/17 03:04:31;;;;;;;15.70;9.30;;;;;;;0.23;79.77;100375.38;220044;1257;141561;-66
2023/10/17 03:09:43;;;;;;;16.80;10.40;;;;;;;0.22;79.66;100379.48;220215;1257;140180;-66
2023/10/17 03:19:52;;;;;;;16.80;10.00;;;;;;;0.12;79.74;100385.36;219231;1257;140850;-66
2023/10/17 03:25:18;;;;;;;15.40;10.30;;;;;;;0.08;79.47;100388.04;218637;1257;140467;-65
2023/10/17 03:30:24;;;;;;;13.90;9.60;;;;;;;0.01;79.73;100392.25;219162;1257;140879;-66
2023/10/17 03:35:35;;;;;;;14.90;9.30;;;;;;;-0.05;79.67;100391.77;218772;1258;140300;-66
2023/10/17 03:40:51;;;;;;;14.50;9.10;;;;;;;-0.07;80.15;100391.08;218846;1257;140079;-66
2023/10/17 03:46:03;;;;;;;15.20;9.70;;;;;;;-0.07;80.17;100392.88;218622;1257;140111;-66
2023/10/17 03:56:23;;;;;;;15.50;9.20;;;;;;;-0.11;80.11;100397.65;218405;1261;140346;-65
2023/10/17 04:01:28;;;;;;;16.30;9.20;;;;;;;-0.13;80.59;100395.84;218094;1258;140494;-63
2023/10/17 04:06:43;;;;;;;17.20;12.30;;;;;;;-0.16;80.39;100397.54;217588;1261;140718;-63
2023/10/17 04:11:49;;;;;;;16.60;11.20;;;;;;;-0.23;80.22;100395.95;218135;1260;140217;-63
2023/10/17 04:16:55;;;;;;;15.30;12.60;;;;;;;-0.28;80.31;100391.42;217334;1257;140352;-66
2023/10/17 04:27:23;;;;;;;18.40;11.30;;;;;;;-0.33;80.70;100385.33;218288;1260;140543;-65
2023/10/17 04:32:33;;;;;;;16.40;9.70;;;;;;;-0.37;80.70;100385.84;218589;1257;140884;-66
2023/10/17 04:37:44;;;;;;;16.10;10.90;;;;;;;-0.39;80.60;100382.82;218121;1260;140239;-65
2023/10/17 04:48:14;;;;;;;18.20;10.30;;;;;;;-0.43;80.98;100383.43;218895;1257;141223;-66
2023/10/17 04:53:38;;;;;;;15.80;10.20;;;;;;;-0.47;80.87;100386.33;220139;1257;141780;-67
2023/10/17 04:58:53;;;;;;;19.60;13.00;;;;;;;-0.45;81.16;100394.16;220095;1257;141098;-66
2023/10/17 05:03:59;;;;;;;19.90;11.80;;;;;;;-0.42;81.04;100395.52;220107;1257;140650;-67
2023/10/17 06:16:49;;;;;;;21.20;11.70;;;;;;;-0.42;81.01;100400.13;220283;1257;140737;-67
2023/10/17 06:19:24;;;;;;;34.80;17.60;;;;;;;0.90;84.30;100457.44;217266;1257;140932;-67
2023/10/17 06:24:45;;;;;;;26.70;13.30;;;;;;;1.06;84.24;100460.06;218100;1257;141132;-68
2023/10/17 06:35:13;;;;;;;17.80;11.20;;;;;;;1.51;85.12;100459.22;217330;1259;143761;-67
2023/10/17 06:40:30;;;;;;;17.00;12.40;;;;;;;1.76;85.24;100461.58;219059;1257;141886;-67
2023/10/17 06:45:37;;;;;;;16.80;11.90;;;;;;;1.98;85.23;100467.48;218207;1262;141316;-71
2023/10/17 06:56:09;;;;;;;15.60;12.00;;;;;;;2.54;85.42;100467.46;217769;1259;140626;-66
2023/10/17 07:01:19;;;;;;;17.80;11.80;;;;;;;2.77;85.24;100468.10;218914;1257;140829;-65
2023/10/17 07:06:24;;;;;;;15.40;9.90;;;;;;;3.02;85.13;100466.22;220130;1257;140262;-67
2023/10/17 07:11:29;;;;;;;17.10;10.40;;;;;;;3.28;85.07;100469.88;219123;1259;140956;-66
2023/10/17 07:16:41;;;;;;;13.90;10.10;;;;;;;3.45;84.48;100469.64;220145;1259;140633;-67
2023/10/17 07:22:04;;;;;;;14.00;10.40;;;;;;;3.52;84.37;100471.13;217524;1259;140861;-66
2023/10/17 07:27:22;;;;;;;16.40;10.70;;;;;;;3.52;84.24;100476.11;217843;1259;140556;-67
2023/10/17 07:32:44;;;;;;;12.00;9.20;;;;;;;3.75;84.84;100477.73;218280;1259;140758;-66
2023/10/17 07:37:54;;;;;;;13.20;9.60;;;;;;;4.04;84.77;100477.46;218708;1259;140694;-66
2023/10/17 07:43:02;;;;;;;11.70;9.10;;;;;;;4.25;84.63;100475.55;218758;1259;142223;-66
2023/10/17 07:48:25;;;;;;;14.30;8.40;;;;;;;4.44;84.19;100483.59;218415;1259;140161;-66
2023/10/17 07:53:32;;;;;;;15.30;11.10;;;;;;;4.61;84.73;100484.25;217598;1262;140746;-66
2023/10/17 07:58:41;;;;;;;10.20;7.50;;;;;;;4.74;84.48;100489.20;219029;1258;140591;-67
2023/10/17 08:04:31;;;;;;;13.30;9.20;;;;;;;4.75;83.85;100498.42;217256;1259;140931;-65
2023/10/17 08:14:45;;;;;;;12.30;8.20;;;;;;;5.10;84.77;100506.65;217315;1259;248285;-67
2023/10/17 08:25:14;;;;;;;18.90;13.10;;;;;;;5.41;83.54;100518.83;217854;1257;139945;-67
2023/10/17 08:30:34;;;;;;;18.20;11.10;;;;;;;5.46;83.80;100516.96;218308;1259;139855;-68
2023/10/17 08:36:01;;;;;;;19.30;11.70;;;;;;;5.51;83.41;100519.54;217689;1257;140384;-68
2023/10/17 08:41:11;;;;;;;17.00;11.60;;;;;;;5.58;83.29;100525.36;217973;1257;139986;-70
2023/10/17 08:46:17;;;;;;;13.70;9.80;;;;;;;5.74;83.66;100517.29;218374;1258;141128;-70
2023/10/17 08:51:24;;;;;;;14.90;11.10;;;;;;;5.92;83.85;100509.14;218312;1259;139835;-70
2023/10/17 08:56:36;;;;;;;12.80;9.70;;;;;;;6.23;83.91;100507.70;218296;1258;140886;-68
2023/10/17 09:02:01;;;;;;;17.30;9.10;;;;;;;6.59;83.79;100512.02;218858;1258;140136;-71
2023/10/17 09:07:08;;;;;;;11.60;9.70;;;;;;;6.74;82.73;100516.80;218104;1259;140153;-70
2023/10/17 09:12:24;;;;;;;13.90;10.30;;;;;;;6.84;82.49;100516.34;218628;1259;141116;-71
2023/10/17 09:17:30;;;;;;;13.80;10.10;;;;;;;7.37;83.23;100523.14;217803;1260;140054;-71
2023/10/17 09:22:37;;;;;;;11.90;9.00;;;;;;;7.74;82.29;100531.67;219317;1257;140265;-69
2023/10/17 09:27:44;;;;;;;14.30;11.90;;;;;;;7.82;81.90;100528.90;219009;1259;140011;-69
2023/10/17 09:32:49;;;;;;;14.40;9.30;;;;;;;7.95;81.58;100519.84;217822;1257;140427;-68
2023/10/17 09:37:56;;;;;;;11.60;8.70;;;;;;;7.97;80.97;100517.56;217512;1261;140036;-68
2023/10/17 09:43:03;;;;;;;14.40;10.20;;;;;;;8.33;81.84;100516.83;217454;1259;142061;-68
2023/10/17 09:48:09;;;;;;;11.50;7.60;;;;;;;8.54;80.69;100519.88;217988;1259;140303;-69
2023/10/17 09:53:19;;;;;;;15.00;9.10;;;;;;;8.73;80.82;100518.26;217868;1257;140398;-68
2023/10/17 09:58:32;;;;;;;15.20;10.00;;;;;;;8.86;79.89;100508.33;217941;1257;141568;-67
2023/10/17 10:03:39;;;;;;;12.00;9.60;;;;;;;9.15;80.14;100506.92;218435;1259;140967;-70
2023/10/17 10:08:44;;;;;;;13.80;10.50;;;;;;;9.43;79.76;100496.51;218168;1259;140553;-69
2023/10/17 10:14:09;;;;;;;15.30;9.80;;;;;;;9.72;79.31;100494.71;217720;1258;141593;-68
2023/10/17 10:19:14;;;;;;;14.30;10.70;;;;;;;9.89;78.54;100488.77;217604;1257;140875;-69
2023/10/17 10:24:24;;;;;;;17.70;10.50;;;;;;;10.04;78.01;100482.77;218425;1258;141467;-69
2023/10/17 10:29:30;;;;;;;13.40;9.00;;;;;;;10.37;77.77;100479.77;217736;1257;141461;-68
2023/10/17 10:34:37;;;;;;;10.40;6.80;;;;;;;10.58;76.81;100477.73;218795;1257;140335;-69
2023/10/17 10:40:16;;;;;;;14.80;9.00;;;;;;;10.83;76.40;100471.26;217808;1257;140762;-70
2023/10/17 10:45:47;;;;;;;14.70;7.90;;;;;;;11.14;76.01;100461.98;218179;1258;139934;-70
2023/10/17 10:50:56;;;;;;;7.80;5.60;;;;;;;11.35;75.10;100451.81;218597;1257;140282;-69
2023/10/17 10:56:09;;;;;;;6.60;4.90;;;;;;;11.47;74.17;100450.05;219738;1257;140838;-71
2023/10/17 11:01:15;;;;;;;8.70;6.30;;;;;;;11.67;73.81;100443.89;220081;1257;140463;-70
2023/10/17 11:06:29;;;;;;;8.50;6.20;;;;;;;11.85;73.48;100435.11;219529;1257;140884;-70
2023/10/17 11:11:44;;;;;;;8.80;6.10;;;;;;;11.95;72.68;100428.98;220148;1258;140156;-71
2023/10/17 11:16:50;;;;;;;9.30;5.80;;;;;;;12.06;71.73;100423.59;219084;1259;140905;-71
2023/10/17 11:21:58;;;;;;;6.00;4.50;;;;;;;12.13;71.43;100411.61;218476;1257;141817;-71
2023/10/17 11:27:03;;;;;;;5.50;4.60;;;;;;;12.38;71.01;100407.41;217505;1257;140165;-70
2023/10/17 11:32:11;;;;;;;4.90;3.70;;;;;;;12.32;70.33;100404.60;218672;1257;140534;-71
2023/10/17 11:37:21;;;;;;;4.30;3.80;;;;;;;12.31;69.99;100396.27;218023;1261;140073;-70
2023/10/17 11:42:34;;;;;;;3.30;2.40;;;;;;;12.39;69.56;100394.71;217752;1258;140307;-70
2023/10/17 11:47:40;;;;;;;5.30;2.70;;;;;;;12.39;69.11;100392.91;217407;1261;140243;-71
2023/10/17 11:52:45;;;;;;;3.90;3.10;;;;;;;12.54;68.83;100394.84;218445;1257;141013;-71
2023/10/17 11:57:50;;;;;;;4.60;2.80;;;;;;;12.66;68.35;100389.30;217773;1258;140790;-71
2023/10/17 12:02:55;;;;;;;2.70;2.20;;;;;;;12.79;68.09;100381.15;217945;1258;140531;-72
2023/10/17 12:08:00;;;;;;;5.60;2.80;;;;;;;12.88;67.54;100376.64;217490;1260;140081;-72
2023/10/17 12:13:08;;;;;;;4.20;2.50;;;;;;;12.90;66.96;100371.11;217633;1260;139772;-70
2023/10/17 12:18:13;;;;;;;4.80;3.30;;;;;;;12.75;66.52;100364.52;217894;1258;139875;-71
2023/10/17 12:23:19;;;;;;;6.70;2.60;;;;;;;12.65;66.58;100364.23;218396;1257;208238;-69
2023/10/17 12:28:26;;;;;;;5.90;2.50;;;;;;;12.64;66.30;100362.20;217435;1261;140182;-71
2023/10/17 12:33:32;;;;;;;5.10;2.30;;;;;;;12.73;65.71;100355.98;218561;1257;140198;-70
2023/10/17 12:38:38;;;;;;;1.50;1.20;;;;;;;12.61;65.48;100346.66;217543;1257;140476;-71
2023/10/17 12:43:42;;;;;;;4.60;2.20;;;;;;;12.60;64.61;100346.52;218347;1261;139597;-71
2023/10/17 12:48:47;;;;;;;1.90;1.30;;;;;;;12.60;64.27;100341.00;218924;1258;140396;-71
2023/10/17 12:53:52;;;;;;;6.20;3.20;;;;;;;12.35;63.81;100336.74;219807;1257;139633;-72
2023/10/17 12:58:59;;;;;;;1.20;1.10;;;;;;;12.13;63.97;100339.41;217425;1261;139815;-71
2023/10/17 13:04:03;;;;;;;1.30;0.90;;;;;;;12.19;63.86;100329.95;220159;1257;140242;-68
2023/10/17 13:09:07;;;;;;;1.90;1.70;;;;;;;12.24;63.75;100323.52;219356;1257;139816;-72
2023/10/17 13:14:12;;;;;;;4.20;2.00;;;;;;;12.36;63.79;100321.17;218622;1259;140911;-72
2023/10/17 13:19:18;;;;;;;2.90;1.30;;;;;;;12.36;63.42;100310.31;219460;1259;140373;-68
2023/10/17 13:24:21;;;;;;;4.40;1.60;;;;;;;12.39;63.11;100306.98;218144;1259;140566;-71
2023/10/17 13:29:26;;;;;;;2.70;1.20;;;;;;;12.39;63.12;100300.51;217827;1257;139499;-70
2023/10/17 13:34:35;;;;;;;1.30;1.30;;;;;;;12.38;62.93;100292.02;218491;1261;140420;-68
2023/10/17 13:39:40;;;;;;;7.20;2.20;;;;;;;12.30;62.30;100295.99;217511;1260;139940;-70
2023/10/17 13:44:45;;;;;;;1.30;1.20;;;;;;;12.25;62.23;100297.42;218170;1257;140589;-71
2023/10/17 13:49:48;;;;;;;4.40;1.60;;;;;;;12.19;61.99;100293.64;218456;1259;139275;-71
2023/10/17 13:54:52;;;;;;;2.30;1.90;;;;;;;12.18;62.10;100291.94;217386;1259;139570;-71
2023/10/17 13:59:57;;;;;;;20.40;3.30;;;;;;;12.13;61.90;100298.92;217935;1257;139136;-71
2023/10/17 14:05:02;;;;;;;9.00;2.40;;;;;;;12.06;61.94;100297.74;217354;1261;140381;-71
2023/10/17 14:10:09;;;;;;;2.20;2.00;;;;;;;11.93;61.55;100297.64;217738;1260;140584;-70
2023/10/17 14:15:14;;;;;;;7.40;2.40;;;;;;;11.85;61.98;100291.23;217498;1261;139245;-70
2023/10/17 14:20:38;;;;;;;4.20;2.50;;;;;;;11.73;62.20;100295.88;217427;1260;881046;-71
2023/10/17 14:31:09;;;;;;;3.00;2.80;;;;;;;11.39;61.99;100282.66;218777;1259;139520;-71
2023/10/17 14:36:15;;;;;;;3.90;2.70;;;;;;;11.23;62.22;100278.66;217824;1257;139833;-71
2023/10/17 14:41:22;;;;;;;2.60;2.00;;;;;;;11.11;62.62;100271.34;219554;1258;139795;-72
2023/10/17 14:46:28;;;;;;;2.90;2.60;;;;;;;11.00;62.73;100263.40;218470;1258;139414;-70
2023/10/17 14:51:33;;;;;;;3.80;3.30;;;;;;;10.93;63.08;100265.55;217695;1258;140597;-70
2023/10/17 14:56:39;;;;;;;5.70;3.20;;;;;;;10.78;63.46;100263.31;219585;1257;139559;-70
2023/10/17 15:01:50;;;;;;;4.00;2.70;;;;;;;10.63;63.97;100259.90;220186;1257;140093;-71
2023/10/17 15:06:57;;;;;;;3.10;2.40;;;;;;;10.42;64.22;100250.64;220140;1260;139931;-71
2023/10/17 15:12:05;;;;;;;5.80;2.80;;;;;;;10.18;64.61;100250.20;217498;1261;140650;-71
2023/10/17 15:17:12;;;;;;;3.40;2.30;;;;;;;9.91;65.00;100249.34;218609;1259;141217;-71
2023/10/17 15:22:17;;;;;;;;;;;;;;;9.61;65.40;100235.11;217482;1259;140857;-69
2023/10/17 15:27:24;;;;;;;7.80;3.40;;;;;;;9.33;66.01;100232.36;218592;1259;126391;-69
2023/10/17 15:32:31;;;;;;;1.80;1.70;;;;;;;9.04;66.25;100230.65;218585;1259;140350;-71
2023/10/17 15:37:38;;;;;;;2.10;2.00;;;;;;;8.70;66.53;100232.42;218688;1260;140847;-71
2023/10/17 15:42:44;;;;;;;;;;;;;;;8.45;67.04;100234.27;217953;1259;140160;-70
2023/10/17 15:47:55;;;;;;;7.20;3.10;;;;;;;8.20;67.21;100241.27;217728;1260;126498;-70
2023/10/17 15:53:04;;;;;;;4.40;1.80;;;;;;;7.94;67.52;100241.55;218549;1261;139755;-71
2023/10/17 15:58:11;;;;;;;4.00;2.10;;;;;;;7.67;67.99;100236.77;217321;1258;140750;-70
2023/10/17 16:03:20;;;;;;;2.50;2.30;;;;;;;7.43;68.15;100240.42;218116;1259;139920;-70
2023/10/17 16:08:28;;;;;;;13.20;3.50;;;;;;;7.16;68.60;100249.38;217508;1261;140115;-69
2023/10/17 16:13:35;;;;;;;3.80;2.20;;;;;;;6.81;68.41;100248.02;217757;1257;140909;-69
2023/10/17 16:18:42;;;;;;;4.20;3.10;;;;;;;6.51;68.89;100263.58;217819;1258;139690;-69
2023/10/17 16:23:47;;;;;;;3.70;2.20;;;;;;;6.42;69.61;100284.44;218544;1259;140871;-70
2023/10/17 16:28:54;;;;;;;3.10;2.50;;;;;;;6.28;69.55;100285.02;217729;1260;140012;-69
2023/10/17 16:34:01;;;;;;;3.10;2.20;;;;;;;6.01;69.65;100282.71;217294;1262;140927;-70
2023/10/17 16:39:11;;;;;;;2.20;1.90;;;;;;;5.74;70.07;100282.42;218832;1261;139802;-69
2023/10/17 16:44:17;;;;;;;6.30;5.10;;;;;;;5.48;70.31;100276.70;217841;1260;140091;-68
2023/10/17 16:49:24;;;;;;;8.70;3.20;;;;;;;5.18;70.88;100278.39;217911;1259;139673;-68
2023/10/17 16:54:32;;;;;;;13.60;5.30;;;;;;;5.04;71.55;100273.77;218816;1259;139865;-69
2023/10/17 16:59:40;;;;;;;18.10;9.00;;;;;;;4.92;71.48;100277.71;220151;1260;140510;-69
2023/10/17 17:04:51;;;;;;;30.30;15.30;;;;;;;4.82;72.02;100283.73;218767;1259;141041;-69
2023/10/17 17:09:56;;;;;;;47.60;20.20;;;;;;;4.81;72.62;100285.72;220054;1259;141507;-69
2023/10/17 17:15:03;;;;;;;55.70;24.30;;;;;;;4.68;72.09;100281.93;219450;1259;139900;-68
2023/10/17 17:20:16;;;;;;;47.40;22.90;;;;;;;4.54;72.02;100277.19;218446;1259;141804;-69
2023/10/17 17:25:26;;;;;;;53.00;20.00;;;;;;;4.46;72.51;100280.08;217249;1260;143715;-68
2023/10/17 17:30:41;;;;;;;53.20;19.50;;;;;;;4.31;72.77;100279.30;219150;1259;141476;-68
2023/10/17 17:36:11;;;;;;;52.00;23.30;;;;;;;4.22;73.53;100276.34;216916;1259;139920;-69
2023/10/17 17:41:22;;;;;;;32.80;14.80;;;;;;;4.22;73.97;100274.47;218602;1263;140858;-69
2023/10/17 17:46:28;;;;;;;46.60;16.40;;;;;;;4.15;74.19;100284.39;217211;1259;140437;-68
2023/10/17 17:51:34;;;;;;;71.20;26.80;;;;;;;4.15;74.45;100285.12;217396;1259;140127;-68
2023/10/17 17:56:45;;;;;;;84.30;31.70;;;;;;;4.09;74.89;100283.18;217325;1260;142093;-67
2023/10/17 18:01:57;;;;;;;;;;;;;;;4.11;75.41;100282.67;216966;1264;139974;-68
2023/10/17 18:07:07;;;;;;;129.70;53.50;;;;;;;4.09;75.97;100284.31;217524;1259;127094;-68
2023/10/17 18:12:15;;;;;;;83.50;37.80;;;;;;;4.10;76.33;100281.83;217173;1259;140172;-68
2023/10/17 18:17:23;;;;;;;72.60;28.20;;;;;;;4.14;76.61;100267.97;217527;1260;140150;-68
2023/10/17 18:22:30;;;;;;;38.60;20.00;;;;;;;4.18;77.22;100263.29;217254;1260;139921;-67
2023/10/17 18:27:43;;;;;;;50.10;21.50;;;;;;;4.22;77.64;100266.05;217125;1259;139945;-66
2023/10/17 18:32:55;;;;;;;63.50;29.90;;;;;;;4.31;77.92;100256.97;217358;1260;141796;-68
2023/10/17 18:38:07;;;;;;;80.20;39.60;;;;;;;4.43;78.27;100261.20;218297;1259;140826;-68
2023/10/17 18:43:16;;;;;;;96.50;42.10;;;;;;;4.53;78.47;100251.89;217610;1263;140562;-67
2023/10/17 18:48:24;;;;;;;66.80;36.50;;;;;;;4.61;78.65;100253.55;217452;1260;140261;-69
2023/10/17 18:53:33;;;;;;;82.00;41.10;;;;;;;4.65;78.84;100254.86;218619;1258;140579;-69
2023/10/17 18:58:47;;;;;;;79.80;37.90;;;;;;;4.68;78.75;100250.11;217223;1259;140593;-68
2023/10/17 19:04:05;;;;;;;102.70;41.90;;;;;;;4.72;78.85;100254.71;220035;1262;141271;-69
2023/10/17 19:09:17;;;;;;;108.30;47.60;;;;;;;4.78;79.09;100256.14;219988;1259;141318;-69
2023/10/17 19:14:29;;;;;;;76.60;38.60;;;;;;;4.83;79.08;100259.61;220070;1260;140683;-70
2023/10/17 19:19:38;;;;;;;77.20;36.00;;;;;;;4.85;78.98;100255.46;219584;1262;140103;-70
2023/10/17 19:24:50;;;;;;;59.90;32.80;;;;;;;4.88;79.21;100248.95;220063;1259;140600;-70
2023/10/17 19:30:00;;;;;;;71.70;34.10;;;;;;;4.86;78.89;100239.86;219100;1261;141841;-68
2023/10/17 19:35:10;;;;;;;62.30;30.40;;;;;;;4.83;78.85;100236.46;218088;1259;141285;-68
2023/10/17 19:40:21;;;;;;;52.50;23.70;;;;;;;4.81;78.82;100236.88;218160;1260;141431;-69
2023/10/17 19:45:33;;;;;;;57.80;29.00;;;;;;;4.73;79.00;100232.06;217583;1262;207836;-68
2023/10/17 19:51:14;;;;;;;53.00;25.30;;;;;;;4.74;79.53;100221.06;217193;1260;141342;-68
2023/10/17 19:56:25;;;;;;;52.80;24.90;;;;;;;4.78;79.52;100214.77;217094;1259;141641;-66
2023/10/17 20:01:33;;;;;;;46.50;24.00;;;;;;;4.72;79.31;100222.54;217804;1259;141080;-68
2023/10/17 20:06:42;;;;;;;41.90;23.50;;;;;;;4.67;79.58;100216.26;217701;1262;140177;-69
2023/10/17 20:11:49;;;;;;;37.40;18.40;;;;;;;4.66;79.48;100213.32;217114;1262;140436;-68
2023/10/17 20:16:54;;;;;;;43.70;20.20;;;;;;;4.58;79.14;100217.21;217836;1262;141166;-71
2023/10/17 20:22:05;;;;;;;47.30;23.20;;;;;;;4.50;79.46;100222.79;218258;1258;140854;-71
2023/10/17 20:27:13;;;;;;;36.70;19.60;;;;;;;4.43;79.72;100217.22;217724;1263;139882;-71
2023/10/17 20:32:22;;;;;;;34.00;18.40;;;;;;;4.33;79.58;100213.98;218334;1261;229768;-69
2023/10/17 20:37:29;;;;;;;39.30;23.50;;;;;;;4.24;79.48;100212.42;217367;1263;139843;-69
2023/10/17 20:42:35;;;;;;;31.40;18.60;;;;;;;4.20;79.87;100217.81;217639;1262;141178;-70
2023/10/17 20:47:43;;;;;;;36.10;20.80;;;;;;;4.18;79.95;100219.88;217321;1262;139984;-69
2023/10/17 20:52:48;;;;;;;40.20;19.70;;;;;;;4.17;80.22;100209.40;218852;1262;140454;-67
2023/10/17 20:57:53;;;;;;;38.90;20.50;;;;;;;4.18;80.13;100202.34;217980;1259;140683;-69
2023/10/17 21:02:58;;;;;;;37.00;20.50;;;;;;;4.19;80.67;100200.38;218625;1261;140423;-69
2023/10/17 21:08:06;;;;;;;35.30;19.20;;;;;;;4.24;80.65;100203.33;218638;1259;140607;-72
2023/10/17 21:13:15;;;;;;;37.40;20.90;;;;;;;4.24;80.79;100203.50;218875;1263;141488;-72
2023/10/17 21:18:20;;;;;;;42.80;24.40;;;;;;;4.20;80.52;100184.60;219031;1260;141336;-71
2023/10/17 21:23:27;;;;;;;42.40;25.10;;;;;;;4.16;80.48;100175.41;217704;1261;140040;-70
2023/10/17 21:28:34;;;;;;;48.90;29.00;;;;;;;4.12;80.39;100175.55;217220;1262;140625;-72
2023/10/17 21:33:39;;;;;;;48.00;25.60;;;;;;;3.97;80.03;100164.99;219098;1263;235283;-68
2023/10/17 21:38:45;;;;;;;46.60;25.00;;;;;;;3.84;80.14;100165.41;218045;1261;140442;-70
2023/10/17 21:43:52;;;;;;;35.20;18.60;;;;;;;3.69;79.75;100164.63;218542;1259;141504;-72
2023/10/17 21:48:58;;;;;;;32.80;18.50;;;;;;;3.52;79.77;100158.06;217507;1263;139976;-71
2023/10/17 21:54:04;;;;;;;36.10;20.40;;;;;;;3.36;79.77;100156.95;218049;1260;140768;-70
2023/10/17 21:59:13;;;;;;;48.80;26.00;;;;;;;3.20;79.61;100157.18;217655;1262;140358;-68
2023/10/17 22:04:20;;;;;;;41.00;23.30;;;;;;;3.07;79.60;100151.88;217276;1264;140391;-70
2023/10/17 22:09:30;;;;;;;49.60;25.40;;;;;;;2.95;79.61;100150.13;217716;1259;140304;-68
2023/10/17 22:14:37;;;;;;;42.90;25.50;;;;;;;2.86;79.49;100155.64;217452;1260;140379;-69
2023/10/17 22:19:42;;;;;;;38.90;23.10;;;;;;;2.80;79.74;100155.15;217849;1259;140389;-67
2023/10/17 22:24:47;;;;;;;39.30;20.20;;;;;;;2.70;79.54;100149.80;217474;1261;140584;-69
2023/10/17 22:29:59;;;;;;;34.10;22.50;;;;;;;2.58;79.65;100149.56;217901;1260;140060;-69
2023/10/17 22:35:05;;;;;;;36.90;23.20;;;;;;;2.51;79.76;100146.57;218321;1260;141053;-67
2023/10/17 22:40:11;;;;;;;40.70;19.50;;;;;;;2.45;79.55;100147.52;218421;1261;141482;-69
2023/10/17 22:45:17;;;;;;;44.10;24.00;;;;;;;2.37;79.56;100149.52;217371;1261;140188;-69
2023/10/17 22:50:23;;;;;;;43.40;23.60;;;;;;;2.26;79.60;100150.73;219247;1259;140684;-68
2023/10/17 22:55:27;;;;;;;37.60;20.00;;;;;;;2.10;79.32;100153.44;217016;1262;141712;-68
2023/10/17 23:00:31;;;;;;;39.80;20.20;;;;;;;1.95;79.42;100154.48;218036;1259;140998;-68
2023/10/17 23:05:35;;;;;;;32.70;18.20;;;;;;;1.89;79.57;100161.17;217508;1263;140944;-68
2023/10/17 23:10:40;;;;;;;35.60;18.40;;;;;;;1.75;79.38;100160.46;218983;1262;140797;-70
2023/10/17 23:15:45;;;;;;;30.00;16.80;;;;;;;1.58;79.24;100155.55;217918;1260;141676;-69
2023/10/17 23:20:50;;;;;;;37.70;17.60;;;;;;;1.45;79.23;100153.88;217689;1260;141279;-68
2023/10/17 23:25:54;;;;;;;41.40;21.60;;;;;;;1.31;79.31;100154.73;218897;1263;140505;-68
2023/10/17 23:31:00;;;;;;;44.90;22.50;;;;;;;1.19;79.42;100155.00;218201;1260;140285;-69
2023/10/17 23:36:06;;;;;;;43.30;23.90;;;;;;;1.12;79.82;100155.36;218566;1259;140520;-69
2023/10/17 23:41:12;;;;;;;46.90;24.70;;;;;;;1.10;79.69;100146.63;217656;1261;141702;-68
2023/10/17 23:46:17;;;;;;;44.20;20.80;;;;;;;1.09;79.92;100148.06;218363;1259;140335;-69
2023/10/17 23:51:22;;;;;;;30.40;18.80;;;;;;;1.00;79.62;100142.64;217498;1262;140433;-73
2023/10/17 23:56:29;;;;;;;34.20;19.60;;;;;;;0.88;79.60;100139.73;217300;1262;140702;-72
